createdAt,value
2023-05-11T00:01:46.566Z,15.20
2023-05-11T00:04:48.798Z,15.20
2023-05-11T00:07:51.233Z,15.10
2023-05-11T00:10:54.587Z,15.00
2023-05-11T00:13:56.851Z,15.00
2023-05-11T00:16:59.076Z,14.90
2023-05-11T00:20:01.361Z,14.90
2023-05-11T00:23:03.599Z,14.90
2023-05-11T00:26:05.778Z,14.90
2023-05-11T00:29:08.200Z,14.80
2023-05-11T00:32:10.435Z,14.80
2023-05-11T00:35:12.656Z,14.70
2023-05-11T00:38:15.793Z,14.70
2023-05-11T00:41:17.931Z,14.70
2023-05-11T00:44:20.149Z,14.80
2023-05-11T00:47:23.127Z,14.60
2023-05-11T00:50:26.548Z,14.70
2023-05-11T00:53:28.630Z,14.70
2023-05-11T00:56:30.766Z,14.80
2023-05-11T00:59:33.664Z,14.70
2023-05-11T01:02:36.969Z,14.80
2023-05-11T01:05:45.066Z,14.80
2023-05-11T01:08:57.354Z,14.60
2023-05-11T01:12:21.682Z,14.60
2023-05-11T01:15:36.863Z,14.70
2023-05-11T01:18:49.343Z,14.70
2023-05-11T01:21:52.041Z,14.70
2023-05-11T01:25:17.642Z,14.70
2023-05-11T01:28:27.407Z,14.60
2023-05-11T01:31:35.901Z,14.70
2023-05-11T01:34:42.223Z,14.60
2023-05-11T01:37:50.643Z,14.70
2023-05-11T01:40:57.747Z,14.60
2023-05-11T01:44:05.501Z,14.50
2023-05-11T01:47:09.650Z,14.50
2023-05-11T01:50:15.944Z,14.50
2023-05-11T01:53:19.308Z,14.40
2023-05-11T01:56:23.432Z,14.50
2023-05-11T01:59:27.853Z,14.40
2023-05-11T02:02:32.008Z,14.40
2023-05-11T02:05:35.195Z,14.40
2023-05-11T02:08:41.537Z,14.30
2023-05-11T02:11:46.260Z,14.30
2023-05-11T02:14:52.878Z,14.40
2023-05-11T02:17:56.044Z,14.40
2023-05-11T02:21:00.285Z,14.30
2023-05-11T02:24:15.741Z,14.30
2023-05-11T02:30:57.064Z,14.30
2023-05-11T02:34:07.216Z,14.20
2023-05-11T02:37:21.032Z,14.20
2023-05-11T02:40:33.872Z,14.20
2023-05-11T02:43:39.615Z,14.20
2023-05-11T02:46:42.933Z,14.20
2023-05-11T02:49:49.806Z,14.20
2023-05-11T02:52:55.255Z,14.20
2023-05-11T02:55:58.286Z,14.10
2023-05-11T02:59:01.940Z,14.10
2023-05-11T03:02:04.231Z,14.10
2023-05-11T03:05:07.089Z,14.10
2023-05-11T03:08:10.018Z,14.10
2023-05-11T03:11:15.821Z,14.10
2023-05-11T03:14:22.471Z,14.10
2023-05-11T03:17:27.917Z,14.10
2023-05-11T03:20:32.329Z,14.00
2023-05-11T03:23:36.694Z,14.10
2023-05-11T03:27:01.119Z,14.10
2023-05-11T03:30:08.143Z,14.10
2023-05-11T03:33:14.718Z,14.10
2023-05-11T03:36:19.782Z,14.00
2023-05-11T03:39:28.132Z,14.00
2023-05-11T03:42:33.403Z,14.00
2023-05-11T03:45:37.551Z,14.00
2023-05-11T03:48:43.956Z,13.90
2023-05-11T03:51:52.019Z,13.90
2023-05-11T03:54:55.003Z,13.90
2023-05-11T03:57:58.393Z,13.90
2023-05-11T04:01:01.860Z,13.90
2023-05-11T04:04:05.022Z,13.90
2023-05-11T04:07:08.598Z,13.90
2023-05-11T04:10:12.736Z,13.90
2023-05-11T04:13:16.049Z,13.90
2023-05-11T04:16:21.378Z,13.80
2023-05-11T04:19:23.905Z,13.80
2023-05-11T04:22:26.328Z,13.90
2023-05-11T04:25:29.654Z,13.80
2023-05-11T04:28:32.474Z,13.90
2023-05-11T04:31:37.999Z,13.90
2023-05-11T04:34:44.009Z,13.80
2023-05-11T04:37:48.290Z,13.90
2023-05-11T04:40:52.099Z,13.90
2023-05-11T04:43:56.632Z,14.00
2023-05-11T04:47:00.894Z,13.90
2023-05-11T04:50:04.333Z,13.90
2023-05-11T04:53:11.119Z,13.90
2023-05-11T04:56:13.689Z,13.90
2023-05-11T04:59:15.858Z,13.90
2023-05-11T05:02:19.739Z,13.90
2023-05-11T05:05:24.020Z,14.00
2023-05-11T05:08:27.650Z,14.00
2023-05-11T05:11:29.906Z,14.10
2023-05-11T05:14:32.394Z,14.00
2023-05-11T05:17:34.580Z,14.00
2023-05-11T05:20:36.822Z,14.10
2023-05-11T05:23:38.884Z,14.20
2023-05-11T05:26:41.189Z,14.10
2023-05-11T05:29:46.500Z,14.20
2023-05-11T05:32:49.122Z,14.30
2023-05-11T05:35:51.119Z,14.30
2023-05-11T05:38:53.463Z,14.30
2023-05-11T05:42:03.816Z,14.30
2023-05-11T05:45:08.759Z,14.30
2023-05-11T05:48:12.966Z,14.20
2023-05-11T05:51:15.160Z,14.40
2023-05-11T05:54:18.489Z,14.40
2023-05-11T05:57:22.602Z,14.40
2023-05-11T06:00:25.362Z,14.40
2023-05-11T06:03:36.277Z,14.50
2023-05-11T06:06:39.133Z,14.50
2023-05-11T06:09:41.338Z,14.30
2023-05-11T06:12:52.075Z,14.40
2023-05-11T06:15:54.565Z,14.60
2023-05-11T06:19:03.215Z,14.50
2023-05-11T06:22:06.703Z,14.70
2023-05-11T06:25:10.568Z,14.70
2023-05-11T06:28:16.624Z,14.80
2023-05-11T06:31:19.163Z,14.70
2023-05-11T06:34:23.379Z,14.90
2023-05-11T06:37:30.581Z,14.90
2023-05-11T06:40:33.633Z,14.80
2023-05-11T06:43:35.866Z,14.70
2023-05-11T06:46:49.427Z,14.70
2023-05-11T06:49:51.479Z,14.80
2023-05-11T06:52:54.519Z,14.80
2023-05-11T06:55:56.877Z,14.80
2023-05-11T06:58:59.435Z,14.80
2023-05-11T07:02:02.312Z,14.80
2023-05-11T07:05:06.834Z,15.00
2023-05-11T07:08:10.173Z,15.10
2023-05-11T07:11:12.529Z,15.20
2023-05-11T07:14:14.879Z,15.20
2023-05-11T07:17:17.125Z,15.40
2023-05-11T07:20:21.813Z,15.40
2023-05-11T07:23:26.100Z,15.60
2023-05-11T07:26:28.281Z,15.50
2023-05-11T07:29:30.462Z,15.40
2023-05-11T07:32:32.831Z,15.70
2023-05-11T07:35:34.970Z,15.80
2023-05-11T07:38:37.168Z,15.90
2023-05-11T07:41:40.256Z,15.90
2023-05-11T07:44:44.278Z,15.90
2023-05-11T07:47:46.711Z,15.90
2023-05-11T07:50:49.346Z,16.00
2023-05-11T07:53:51.537Z,16.10
2023-05-11T07:56:53.600Z,16.20
2023-05-11T07:59:55.634Z,16.30
2023-05-11T08:02:57.953Z,16.50
2023-05-11T08:06:00.106Z,16.40
2023-05-11T08:09:02.131Z,16.40
2023-05-11T08:12:04.261Z,16.40
2023-05-11T08:15:06.710Z,16.50
2023-05-11T08:18:08.916Z,16.60
2023-05-11T08:21:11.149Z,16.50
2023-05-11T08:24:13.286Z,16.30
2023-05-11T08:27:17.885Z,16.40
2023-05-11T08:30:20.189Z,16.40
2023-05-11T08:33:36.538Z,16.40
2023-05-11T08:36:39.850Z,16.50
2023-05-11T08:39:46.522Z,16.50
2023-05-11T08:42:54.525Z,16.40
2023-05-11T08:46:03.109Z,16.40
2023-05-11T08:49:05.436Z,16.50
2023-05-11T08:52:08.277Z,16.60
2023-05-11T08:55:11.256Z,16.50
2023-05-11T08:58:13.659Z,16.70
2023-05-11T09:01:17.395Z,16.40
2023-05-11T09:04:22.672Z,16.50
2023-05-11T09:07:26.937Z,16.70
2023-05-11T09:10:29.219Z,16.50
2023-05-11T09:13:32.053Z,16.70
2023-05-11T09:16:37.558Z,16.60
2023-05-11T09:20:01.865Z,16.80
2023-05-11T09:23:04.003Z,16.90
2023-05-11T09:26:23.114Z,16.70
2023-05-11T09:29:30.397Z,16.70
2023-05-11T09:32:50.794Z,16.80
2023-05-11T09:35:53.891Z,16.90
2023-05-11T09:39:02.998Z,16.90
2023-05-11T09:42:21.733Z,16.80
2023-05-11T09:45:48.059Z,17.00
2023-05-11T09:49:00.164Z,16.80
2023-05-11T09:52:02.294Z,16.80
2023-05-11T09:55:10.401Z,16.90
2023-05-11T09:58:12.574Z,17.00
2023-05-11T10:01:15.257Z,17.10
2023-05-11T10:04:23.520Z,17.10
2023-05-11T10:07:34.439Z,17.10
2023-05-11T10:10:36.786Z,17.00
2023-05-11T10:13:40.345Z,17.20
2023-05-11T10:16:44.014Z,17.10
2023-05-11T10:19:50.315Z,17.20
2023-05-11T10:22:54.368Z,17.40
2023-05-11T10:25:58.174Z,17.40
2023-05-11T10:29:01.152Z,17.20
2023-05-11T10:32:04.429Z,17.40
2023-05-11T10:35:09.724Z,17.50
2023-05-11T10:38:13.102Z,17.70
2023-05-11T10:41:40.291Z,17.40
2023-05-11T10:44:51.595Z,17.50
2023-05-11T10:48:32.911Z,17.50
2023-05-11T11:04:14.732Z,18.10
2023-05-11T11:07:17.853Z,18.10
2023-05-11T11:10:38.203Z,18.40
2023-05-11T11:14:02.022Z,18.40
2023-05-11T11:17:24.366Z,18.20
2023-05-11T11:20:46.173Z,18.40
2023-05-11T11:23:49.878Z,18.40
2023-05-11T11:26:51.916Z,18.70
2023-05-11T11:30:18.871Z,18.70
2023-05-11T11:33:20.900Z,18.60
2023-05-11T11:36:57.043Z,18.50
2023-05-11T11:40:13.063Z,18.40
2023-05-11T11:43:20.899Z,18.50
2023-05-11T11:46:30.278Z,18.40
2023-05-11T11:49:32.344Z,18.40
2023-05-11T11:52:34.764Z,18.20
2023-05-11T11:55:57.129Z,18.50
2023-05-11T11:59:00.846Z,18.60
2023-05-11T12:02:04.023Z,18.70
2023-05-11T12:05:19.127Z,18.60
2023-05-11T12:08:25.018Z,18.70
2023-05-11T12:11:29.983Z,18.90
2023-05-11T12:14:32.634Z,19.30
2023-05-11T12:17:38.923Z,19.40
2023-05-11T12:20:41.820Z,19.40
2023-05-11T12:23:55.337Z,19.40
2023-05-11T12:26:57.478Z,19.50
2023-05-11T12:29:59.419Z,19.20
2023-05-11T12:33:01.984Z,19.30
2023-05-11T12:36:04.180Z,19.60
2023-05-11T12:39:06.127Z,19.60
2023-05-11T12:42:08.080Z,19.40
2023-05-11T12:45:12.328Z,19.30
2023-05-11T12:48:15.456Z,19.50
2023-05-11T12:51:45.444Z,19.70
2023-05-11T12:54:50.051Z,19.90
2023-05-11T12:57:52.075Z,19.60
2023-05-11T13:00:56.428Z,19.40
2023-05-11T13:03:58.553Z,19.00
2023-05-11T13:07:00.667Z,19.20
2023-05-11T13:10:02.627Z,19.40
2023-05-11T13:13:04.608Z,19.30
2023-05-11T13:16:06.928Z,19.50
2023-05-11T13:19:09.071Z,19.50
2023-05-11T13:22:11.829Z,19.50
2023-05-11T13:25:20.620Z,19.50
2023-05-11T13:28:24.004Z,19.50
2023-05-11T13:31:26.228Z,19.30
2023-05-11T13:34:28.386Z,19.40
2023-05-11T13:37:30.750Z,19.30
2023-05-11T13:40:32.819Z,19.40
2023-05-11T13:43:34.849Z,19.40
2023-05-11T13:46:36.931Z,19.40
2023-05-11T13:49:39.165Z,19.30
2023-05-11T13:52:41.071Z,19.20
2023-05-11T13:55:43.375Z,19.20
2023-05-11T13:58:45.535Z,19.10
2023-05-11T14:01:47.666Z,19.30
2023-05-11T14:04:50.299Z,19.10
2023-05-11T14:07:52.578Z,19.40
2023-05-11T14:10:54.515Z,19.30
2023-05-11T14:13:56.735Z,19.40
2023-05-11T14:16:58.865Z,19.40
2023-05-11T14:20:01.503Z,19.50
2023-05-11T14:23:03.845Z,19.30
2023-05-11T14:26:05.908Z,19.30
2023-05-11T14:29:07.774Z,19.10
2023-05-11T14:32:10.414Z,19.20
2023-05-11T14:35:12.440Z,19.30
2023-05-11T14:38:15.097Z,19.40
2023-05-11T14:41:17.059Z,19.20
2023-05-11T14:44:19.070Z,19.20
2023-05-11T14:47:21.566Z,19.30
2023-05-11T14:50:23.660Z,19.30
2023-05-11T14:53:25.663Z,18.90
2023-05-11T14:56:27.934Z,19.30
2023-05-11T14:59:30.044Z,19.40
2023-05-11T15:02:32.051Z,19.50
2023-05-11T15:05:34.442Z,19.30
2023-05-11T15:08:36.386Z,19.30
2023-05-11T15:11:38.401Z,18.90
2023-05-11T15:14:40.336Z,19.00
2023-05-11T15:17:42.293Z,19.20
2023-05-11T15:20:44.445Z,19.10
2023-05-11T15:23:46.546Z,18.90
2023-05-11T15:26:48.769Z,19.20
2023-05-11T15:29:50.828Z,19.20
2023-05-11T15:32:52.820Z,19.20
2023-05-11T15:35:54.879Z,19.20
2023-05-11T15:38:56.938Z,19.20
2023-05-11T15:42:01.413Z,19.00
2023-05-11T15:45:03.462Z,19.20
2023-05-11T15:48:05.814Z,19.30
2023-05-11T15:51:07.789Z,19.10
2023-05-11T15:54:09.833Z,19.30
2023-05-11T15:57:11.767Z,19.00
2023-05-11T16:00:14.174Z,19.20
2023-05-11T16:03:16.466Z,19.20
2023-05-11T16:06:18.633Z,19.40
2023-05-11T16:09:20.729Z,19.10
2023-05-11T16:12:22.641Z,19.00
2023-05-11T16:15:24.892Z,19.10
2023-05-11T16:18:26.821Z,19.20
2023-05-11T16:21:28.965Z,19.00
2023-05-11T16:24:33.512Z,19.00
2023-05-11T16:27:36.322Z,18.90
2023-05-11T16:30:38.296Z,19.10
2023-05-11T16:33:40.357Z,19.20
2023-05-11T16:36:42.237Z,19.10
2023-05-11T16:39:44.339Z,19.10
2023-05-11T16:42:46.481Z,18.90
2023-05-11T16:45:48.454Z,18.90
2023-05-11T16:48:50.439Z,18.80
2023-05-11T16:51:52.506Z,18.80
2023-05-11T16:54:55.697Z,18.80
2023-05-11T16:57:58.804Z,18.80
2023-05-11T17:01:00.934Z,18.70
2023-05-11T17:04:03.247Z,18.80
2023-05-11T17:07:05.510Z,18.70
2023-05-11T17:10:08.069Z,18.80
2023-05-11T17:13:10.113Z,18.70
2023-05-11T17:16:13.666Z,18.50
2023-05-11T17:19:15.787Z,18.50
2023-05-11T17:22:17.717Z,18.50
2023-05-11T17:25:19.803Z,18.40
2023-05-11T17:28:21.933Z,18.40
2023-05-11T17:31:24.346Z,18.20
2023-05-11T17:34:28.600Z,18.10
2023-05-11T17:37:32.451Z,18.10
2023-05-11T17:40:34.774Z,18.10
2023-05-11T17:43:36.880Z,18.00
2023-05-11T17:46:38.864Z,18.00
2023-05-11T17:49:40.927Z,17.90
2023-05-11T17:52:42.959Z,17.80
2023-05-11T17:55:44.937Z,17.70
2023-05-11T17:58:46.896Z,17.70
2023-05-11T18:01:52.421Z,17.60
2023-05-11T18:04:54.534Z,17.70
2023-05-11T18:07:56.799Z,17.60
2023-05-11T18:10:59.502Z,17.60
2023-05-11T18:14:04.018Z,17.50
2023-05-11T18:17:06.148Z,17.40
2023-05-11T18:20:08.751Z,17.30
2023-05-11T18:23:10.955Z,17.30
2023-05-11T18:26:12.904Z,17.20
2023-05-11T18:29:16.570Z,17.10
2023-05-11T18:32:20.097Z,17.10
2023-05-11T18:35:22.303Z,17.10
2023-05-11T18:38:24.248Z,17.10
2023-05-11T18:41:32.193Z,17.00
2023-05-11T18:44:34.625Z,17.00
2023-05-11T18:47:36.897Z,16.90
2023-05-11T18:50:38.787Z,16.80
2023-05-11T18:53:41.054Z,16.80
2023-05-11T18:56:43.141Z,16.80
2023-05-11T18:59:45.229Z,16.70
2023-05-11T19:02:47.228Z,16.60
2023-05-11T19:05:49.404Z,16.60
2023-05-11T19:08:52.448Z,16.60
2023-05-11T19:11:55.989Z,16.60
2023-05-11T19:14:57.968Z,16.70
2023-05-11T19:18:00.285Z,16.70
2023-05-11T19:21:02.828Z,16.50
2023-05-11T19:24:05.828Z,16.50
2023-05-11T19:27:08.251Z,16.40
2023-05-11T19:30:10.579Z,16.40
2023-05-11T19:33:12.461Z,16.30
2023-05-11T19:36:15.080Z,16.20
2023-05-11T19:39:17.713Z,16.30
2023-05-11T19:42:25.871Z,16.20
2023-05-11T19:45:42.258Z,16.20
2023-05-11T19:48:44.799Z,16.20
2023-05-11T19:51:47.058Z,16.20
2023-05-11T19:54:49.557Z,16.20
2023-05-11T19:57:51.920Z,16.10
2023-05-11T20:00:54.209Z,16.10
2023-05-11T20:03:56.500Z,16.00
2023-05-11T20:06:58.989Z,15.90
2023-05-11T20:10:01.416Z,15.90
2023-05-11T20:13:03.924Z,15.80
2023-05-11T20:16:06.543Z,15.80
2023-05-11T20:19:09.529Z,15.70
2023-05-11T20:22:12.298Z,15.70
2023-05-11T20:25:18.694Z,15.50
2023-05-11T20:28:22.852Z,15.50
2023-05-11T20:31:26.611Z,15.40
2023-05-11T20:34:28.956Z,15.50
2023-05-11T20:37:31.966Z,15.50
2023-05-11T20:40:34.216Z,15.50
2023-05-11T20:43:36.398Z,15.40
2023-05-11T20:46:38.650Z,15.50
2023-05-11T20:49:40.885Z,15.50
2023-05-11T20:52:43.486Z,15.30
2023-05-11T20:55:46.213Z,15.40
2023-05-11T20:58:50.413Z,15.40
2023-05-11T21:01:53.376Z,15.40
2023-05-11T21:04:55.776Z,15.20
2023-05-11T21:07:58.026Z,15.10
2023-05-11T21:11:00.359Z,15.00
2023-05-11T21:14:02.545Z,15.10
2023-05-11T21:17:04.862Z,15.10
2023-05-11T21:20:08.821Z,15.20
2023-05-11T21:23:11.073Z,15.00
2023-05-11T21:26:13.813Z,14.90
2023-05-11T21:29:16.070Z,14.90
2023-05-11T21:32:18.685Z,14.90
2023-05-11T21:35:20.838Z,15.10
2023-05-11T21:38:23.311Z,14.90
2023-05-11T21:41:25.754Z,14.90
2023-05-11T21:44:30.310Z,14.80
2023-05-11T21:47:35.058Z,14.90
2023-05-11T21:50:39.945Z,14.90
2023-05-11T21:53:48.389Z,15.00
2023-05-11T21:56:51.640Z,14.90
2023-05-11T21:59:53.798Z,15.00
2023-05-11T22:02:56.542Z,14.90
2023-05-11T22:05:58.836Z,14.80
2023-05-11T22:09:00.990Z,14.80
2023-05-11T22:12:03.126Z,14.90
2023-05-11T22:15:06.265Z,14.70
2023-05-11T22:18:08.472Z,14.70
2023-05-11T22:21:10.829Z,14.70
2023-05-11T22:24:12.871Z,14.70
2023-05-11T22:27:15.338Z,14.80
2023-05-11T22:30:18.024Z,14.90
2023-05-11T22:33:20.235Z,14.70
2023-05-11T22:36:22.543Z,14.70
2023-05-11T22:39:24.985Z,14.90
2023-05-11T22:42:27.366Z,14.80
2023-05-11T22:45:36.328Z,14.70
2023-05-11T22:48:38.930Z,14.70
2023-05-11T22:51:41.432Z,14.80
2023-05-11T22:54:43.769Z,14.80
2023-05-11T22:57:46.675Z,14.80
2023-05-11T23:00:48.820Z,14.90
2023-05-11T23:03:50.988Z,14.80
2023-05-11T23:06:53.110Z,14.90
2023-05-11T23:09:55.133Z,14.70
2023-05-11T23:12:59.734Z,14.80
2023-05-11T23:16:01.895Z,14.70
2023-05-11T23:19:03.943Z,14.80
2023-05-11T23:22:06.231Z,14.90
2023-05-11T23:25:08.894Z,14.80
2023-05-11T23:28:10.966Z,14.70
2023-05-11T23:31:12.973Z,14.60
2023-05-11T23:34:15.464Z,14.60
2023-05-11T23:37:17.793Z,14.60
2023-05-11T23:40:20.735Z,14.70
2023-05-11T23:43:25.057Z,14.60
2023-05-11T23:46:27.109Z,14.60
2023-05-11T23:49:29.428Z,14.60
2023-05-11T23:52:33.169Z,14.60
2023-05-11T23:55:35.752Z,14.70
2023-05-11T23:58:38.327Z,14.70
